sensor_id;sensor_type;location;lat;lon;timestamp;P1;durP1;ratioP1;P2;durP2;ratioP2
43152;SDS011;28756;49.064;9.290;2024-02-26T00:01:49;0.90;;;0.80;;
43152;SDS011;28756;49.064;9.290;2024-02-26T00:04:15;0.70;;;0.70;;
43152;SDS011;28756;49.064;9.290;2024-02-26T00:06:41;1.42;;;0.82;;
43152;SDS011;28756;49.064;9.290;2024-02-26T00:09:08;1.52;;;0.80;;
43152;SDS011;28756;49.064;9.290;2024-02-26T00:11:37;1.10;;;0.70;;
43152;SDS011;28756;49.064;9.290;2024-02-26T00:14:04;1.67;;;1.05;;
43152;SDS011;28756;49.064;9.290;2024-02-26T00:16:30;1.30;;;0.90;;
43152;SDS011;28756;49.064;9.290;2024-02-26T00:18:55;1.65;;;0.90;;
43152;SDS011;28756;49.064;9.290;2024-02-26T00:21:21;1.50;;;0.80;;
43152;SDS011;28756;49.064;9.290;2024-02-26T00:23:48;1.40;;;1.00;;
43152;SDS011;28756;49.064;9.290;2024-02-26T00:26:18;1.13;;;0.73;;
43152;SDS011;28756;49.064;9.290;2024-02-26T00:28:46;0.93;;;0.70;;
43152;SDS011;28756;49.064;9.290;2024-02-26T00:31:12;1.02;;;0.90;;
43152;SDS011;28756;49.064;9.290;2024-02-26T00:33:38;1.70;;;0.77;;
43152;SDS011;28756;49.064;9.290;2024-02-26T00:36:04;1.20;;;0.80;;
43152;SDS011;28756;49.064;9.290;2024-02-26T00:38:34;1.45;;;0.90;;
43152;SDS011;28756;49.064;9.290;2024-02-26T00:41:03;1.35;;;0.90;;
43152;SDS011;28756;49.064;9.290;2024-02-26T00:43:29;0.70;;;0.70;;
43152;SDS011;28756;49.064;9.290;2024-02-26T00:45:55;0.98;;;0.60;;
43152;SDS011;28756;49.064;9.290;2024-02-26T00:48:21;1.00;;;0.70;;
43152;SDS011;28756;49.064;9.290;2024-02-26T00:50:46;1.42;;;0.88;;
43152;SDS011;28756;49.064;9.290;2024-02-26T00:53:12;1.50;;;0.90;;
43152;SDS011;28756;49.064;9.290;2024-02-26T00:55:38;1.30;;;0.80;;
43152;SDS011;28756;49.064;9.290;2024-02-26T00:58:04;1.65;;;0.85;;
43152;SDS011;28756;49.064;9.290;2024-02-26T01:00:30;0.90;;;0.70;;
43152;SDS011;28756;49.064;9.290;2024-02-26T01:02:55;0.98;;;0.70;;
43152;SDS011;28756;49.064;9.290;2024-02-26T01:05:21;1.10;;;0.70;;
43152;SDS011;28756;49.064;9.290;2024-02-26T01:07:47;1.75;;;0.85;;
43152;SDS011;28756;49.064;9.290;2024-02-26T01:10:13;1.00;;;0.70;;
43152;SDS011;28756;49.064;9.290;2024-02-26T01:12:39;1.20;;;0.75;;
43152;SDS011;28756;49.064;9.290;2024-02-26T01:15:04;1.27;;;0.80;;
43152;SDS011;28756;49.064;9.290;2024-02-26T01:17:31;1.42;;;0.70;;
43152;SDS011;28756;49.064;9.290;2024-02-26T01:19:56;1.40;;;0.82;;
43152;SDS011;28756;49.064;9.290;2024-02-26T01:22:22;1.73;;;0.70;;
43152;SDS011;28756;49.064;9.290;2024-02-26T01:24:51;1.02;;;0.60;;
43152;SDS011;28756;49.064;9.290;2024-02-26T01:27:17;0.90;;;0.75;;
43152;SDS011;28756;49.064;9.290;2024-02-26T01:29:42;1.75;;;0.90;;
43152;SDS011;28756;49.064;9.290;2024-02-26T01:32:09;1.48;;;0.70;;
43152;SDS011;28756;49.064;9.290;2024-02-26T01:34:34;1.75;;;0.73;;
43152;SDS011;28756;49.064;9.290;2024-02-26T01:37:02;1.00;;;0.70;;
43152;SDS011;28756;49.064;9.290;2024-02-26T01:39:28;0.98;;;0.73;;
43152;SDS011;28756;49.064;9.290;2024-02-26T01:41:55;1.85;;;0.68;;
43152;SDS011;28756;49.064;9.290;2024-02-26T01:44:21;0.98;;;0.80;;
43152;SDS011;28756;49.064;9.290;2024-02-26T01:46:47;1.30;;;0.85;;
43152;SDS011;28756;49.064;9.290;2024-02-26T01:49:14;1.67;;;1.08;;
43152;SDS011;28756;49.064;9.290;2024-02-26T01:51:41;1.30;;;0.90;;
43152;SDS011;28756;49.064;9.290;2024-02-26T01:54:08;2.10;;;1.00;;
43152;SDS011;28756;49.064;9.290;2024-02-26T01:56:35;1.38;;;1.00;;
43152;SDS011;28756;49.064;9.290;2024-02-26T01:59:02;1.10;;;0.90;;
43152;SDS011;28756;49.064;9.290;2024-02-26T02:01:30;2.42;;;1.00;;
43152;SDS011;28756;49.064;9.290;2024-02-26T02:03:59;1.40;;;0.80;;
43152;SDS011;28756;49.064;9.290;2024-02-26T02:06:26;1.33;;;0.80;;
43152;SDS011;28756;49.064;9.290;2024-02-26T02:08:57;0.80;;;0.60;;
43152;SDS011;28756;49.064;9.290;2024-02-26T02:11:23;1.40;;;0.90;;
43152;SDS011;28756;49.064;9.290;2024-02-26T02:13:49;1.63;;;0.98;;
43152;SDS011;28756;49.064;9.290;2024-02-26T02:16:15;1.95;;;0.95;;
43152;SDS011;28756;49.064;9.290;2024-02-26T02:18:41;1.40;;;0.90;;
43152;SDS011;28756;49.064;9.290;2024-02-26T02:21:07;1.85;;;0.90;;
43152;SDS011;28756;49.064;9.290;2024-02-26T02:23:33;1.67;;;0.88;;
43152;SDS011;28756;49.064;9.290;2024-02-26T02:25:58;1.55;;;0.85;;
43152;SDS011;28756;49.064;9.290;2024-02-26T02:28:25;1.75;;;1.00;;
43152;SDS011;28756;49.064;9.290;2024-02-26T02:30:52;1.23;;;0.88;;
43152;SDS011;28756;49.064;9.290;2024-02-26T02:33:19;1.92;;;1.10;;
43152;SDS011;28756;49.064;9.290;2024-02-26T02:35:47;1.45;;;1.00;;
43152;SDS011;28756;49.064;9.290;2024-02-26T02:38:13;1.15;;;0.88;;
43152;SDS011;28756;49.064;9.290;2024-02-26T02:40:39;1.20;;;0.90;;
43152;SDS011;28756;49.064;9.290;2024-02-26T02:43:05;0.93;;;0.82;;
43152;SDS011;28756;49.064;9.290;2024-02-26T02:45:30;1.02;;;0.80;;
43152;SDS011;28756;49.064;9.290;2024-02-26T02:47:56;2.20;;;0.75;;
43152;SDS011;28756;49.064;9.290;2024-02-26T02:50:22;1.00;;;0.70;;
43152;SDS011;28756;49.064;9.290;2024-02-26T02:52:48;0.80;;;0.73;;
43152;SDS011;28756;49.064;9.290;2024-02-26T02:55:15;1.13;;;0.80;;
43152;SDS011;28756;49.064;9.290;2024-02-26T02:57:41;2.65;;;0.95;;
43152;SDS011;28756;49.064;9.290;2024-02-26T03:00:10;5.15;;;1.63;;
43152;SDS011;28756;49.064;9.290;2024-02-26T03:02:37;1.02;;;0.82;;
43152;SDS011;28756;49.064;9.290;2024-02-26T03:05:04;1.05;;;0.82;;
43152;SDS011;28756;49.064;9.290;2024-02-26T03:07:30;0.80;;;0.77;;
43152;SDS011;28756;49.064;9.290;2024-02-26T03:09:56;2.13;;;0.90;;
43152;SDS011;28756;49.064;9.290;2024-02-26T03:12:22;1.40;;;0.90;;
43152;SDS011;28756;49.064;9.290;2024-02-26T03:14:48;1.40;;;1.00;;
43152;SDS011;28756;49.064;9.290;2024-02-26T03:17:14;0.90;;;0.80;;
43152;SDS011;28756;49.064;9.290;2024-02-26T03:19:39;1.60;;;0.90;;
43152;SDS011;28756;49.064;9.290;2024-02-26T03:22:05;1.05;;;0.70;;
43152;SDS011;28756;49.064;9.290;2024-02-26T03:24:32;2.25;;;1.00;;
43152;SDS011;28756;49.064;9.290;2024-02-26T03:26:58;1.98;;;0.93;;
43152;SDS011;28756;49.064;9.290;2024-02-26T03:29:27;0.93;;;0.82;;
43152;SDS011;28756;49.064;9.290;2024-02-26T03:31:53;1.33;;;1.00;;
43152;SDS011;28756;49.064;9.290;2024-02-26T03:34:19;1.55;;;1.00;;
43152;SDS011;28756;49.064;9.290;2024-02-26T03:36:45;1.65;;;0.98;;
43152;SDS011;28756;49.064;9.290;2024-02-26T03:39:11;1.55;;;0.90;;
43152;SDS011;28756;49.064;9.290;2024-02-26T03:41:36;1.38;;;1.00;;
43152;SDS011;28756;49.064;9.290;2024-02-26T03:44:02;1.23;;;0.90;;
43152;SDS011;28756;49.064;9.290;2024-02-26T03:46:28;1.67;;;1.10;;
43152;SDS011;28756;49.064;9.290;2024-02-26T03:48:54;1.00;;;0.90;;
43152;SDS011;28756;49.064;9.290;2024-02-26T03:51:20;1.20;;;1.10;;
43152;SDS011;28756;49.064;9.290;2024-02-26T03:53:46;2.05;;;1.17;;
43152;SDS011;28756;49.064;9.290;2024-02-26T03:56:12;0.90;;;0.77;;
43152;SDS011;28756;49.064;9.290;2024-02-26T03:58:40;1.10;;;0.90;;
43152;SDS011;28756;49.064;9.290;2024-02-26T04:01:07;0.88;;;0.80;;
43152;SDS011;28756;49.064;9.290;2024-02-26T04:03:34;1.50;;;1.20;;
43152;SDS011;28756;49.064;9.290;2024-02-26T04:06:00;2.83;;;1.13;;
43152;SDS011;28756;49.064;9.290;2024-02-26T04:08:27;2.10;;;1.00;;
43152;SDS011;28756;49.064;9.290;2024-02-26T04:10:53;1.67;;;1.15;;
43152;SDS011;28756;49.064;9.290;2024-02-26T04:13:19;1.30;;;0.98;;
43152;SDS011;28756;49.064;9.290;2024-02-26T04:15:45;2.97;;;0.90;;
43152;SDS011;28756;49.064;9.290;2024-02-26T04:18:12;1.25;;;1.10;;
43152;SDS011;28756;49.064;9.290;2024-02-26T04:20:39;1.13;;;0.90;;
43152;SDS011;28756;49.064;9.290;2024-02-26T04:23:06;2.60;;;1.00;;
43152;SDS011;28756;49.064;9.290;2024-02-26T04:25:33;1.55;;;1.00;;
43152;SDS011;28756;49.064;9.290;2024-02-26T04:27:58;3.25;;;1.30;;
43152;SDS011;28756;49.064;9.290;2024-02-26T04:30:24;2.38;;;1.30;;
43152;SDS011;28756;49.064;9.290;2024-02-26T04:32:50;1.90;;;1.50;;
43152;SDS011;28756;49.064;9.290;2024-02-26T04:35:16;2.47;;;1.60;;
43152;SDS011;28756;49.064;9.290;2024-02-26T04:37:42;2.47;;;1.40;;
43152;SDS011;28756;49.064;9.290;2024-02-26T04:40:08;1.50;;;1.10;;
43152;SDS011;28756;49.064;9.290;2024-02-26T04:42:34;1.33;;;1.00;;
43152;SDS011;28756;49.064;9.290;2024-02-26T04:45:00;1.60;;;1.08;;
43152;SDS011;28756;49.064;9.290;2024-02-26T04:47:26;1.77;;;0.93;;
43152;SDS011;28756;49.064;9.290;2024-02-26T04:49:52;1.20;;;0.90;;
43152;SDS011;28756;49.064;9.290;2024-02-26T04:52:18;1.67;;;1.08;;
43152;SDS011;28756;49.064;9.290;2024-02-26T04:54:45;1.20;;;1.00;;
43152;SDS011;28756;49.064;9.290;2024-02-26T04:57:11;2.03;;;1.10;;
43152;SDS011;28756;49.064;9.290;2024-02-26T04:59:37;2.28;;;1.00;;
43152;SDS011;28756;49.064;9.290;2024-02-26T05:02:03;1.80;;;1.20;;
43152;SDS011;28756;49.064;9.290;2024-02-26T05:04:28;1.60;;;1.20;;
43152;SDS011;28756;49.064;9.290;2024-02-26T05:06:54;1.67;;;1.13;;
43152;SDS011;28756;49.064;9.290;2024-02-26T05:09:20;1.20;;;0.90;;
43152;SDS011;28756;49.064;9.290;2024-02-26T05:11:46;1.50;;;0.80;;
43152;SDS011;28756;49.064;9.290;2024-02-26T05:14:11;1.63;;;0.93;;
43152;SDS011;28756;49.064;9.290;2024-02-26T05:16:37;1.08;;;0.98;;
43152;SDS011;28756;49.064;9.290;2024-02-26T05:19:03;1.63;;;1.10;;
43152;SDS011;28756;49.064;9.290;2024-02-26T05:21:29;1.55;;;1.00;;
43152;SDS011;28756;49.064;9.290;2024-02-26T05:23:54;2.08;;;0.90;;
43152;SDS011;28756;49.064;9.290;2024-02-26T05:26:21;1.10;;;0.80;;
43152;SDS011;28756;49.064;9.290;2024-02-26T05:28:50;1.42;;;0.90;;
43152;SDS011;28756;49.064;9.290;2024-02-26T05:31:16;1.02;;;0.90;;
43152;SDS011;28756;49.064;9.290;2024-02-26T05:33:43;1.80;;;1.08;;
43152;SDS011;28756;49.064;9.290;2024-02-26T05:36:09;1.50;;;1.15;;
43152;SDS011;28756;49.064;9.290;2024-02-26T05:38:35;1.20;;;0.95;;
43152;SDS011;28756;49.064;9.290;2024-02-26T05:41:00;1.10;;;0.85;;
43152;SDS011;28756;49.064;9.290;2024-02-26T05:43:26;1.48;;;0.90;;
43152;SDS011;28756;49.064;9.290;2024-02-26T05:45:53;1.40;;;0.88;;
43152;SDS011;28756;49.064;9.290;2024-02-26T05:48:19;2.03;;;1.00;;
43152;SDS011;28756;49.064;9.290;2024-02-26T05:50:45;0.80;;;0.70;;
43152;SDS011;28756;49.064;9.290;2024-02-26T05:53:12;0.90;;;0.90;;
43152;SDS011;28756;49.064;9.290;2024-02-26T05:55:38;3.35;;;1.13;;
43152;SDS011;28756;49.064;9.290;2024-02-26T05:58:04;1.10;;;1.00;;
43152;SDS011;28756;49.064;9.290;2024-02-26T06:00:30;1.40;;;1.00;;
43152;SDS011;28756;49.064;9.290;2024-02-26T06:02:56;1.48;;;1.10;;
43152;SDS011;28756;49.064;9.290;2024-02-26T06:05:22;1.63;;;1.10;;
43152;SDS011;28756;49.064;9.290;2024-02-26T06:07:48;5.85;;;4.53;;
43152;SDS011;28756;49.064;9.290;2024-02-26T06:10:14;44.03;;;24.48;;
43152;SDS011;28756;49.064;9.290;2024-02-26T06:12:40;66.88;;;38.75;;
43152;SDS011;28756;49.064;9.290;2024-02-26T06:15:06;37.22;;;27.35;;
43152;SDS011;28756;49.064;9.290;2024-02-26T06:17:32;36.28;;;27.55;;
43152;SDS011;28756;49.064;9.290;2024-02-26T06:19:59;24.08;;;19.83;;
43152;SDS011;28756;49.064;9.290;2024-02-26T06:22:25;20.35;;;16.45;;
43152;SDS011;28756;49.064;9.290;2024-02-26T06:24:51;11.55;;;10.15;;
43152;SDS011;28756;49.064;9.290;2024-02-26T06:27:17;11.45;;;9.77;;
43152;SDS011;28756;49.064;9.290;2024-02-26T06:29:43;7.85;;;6.90;;
43152;SDS011;28756;49.064;9.290;2024-02-26T06:32:09;6.95;;;4.88;;
43152;SDS011;28756;49.064;9.290;2024-02-26T06:34:34;4.07;;;3.67;;
43152;SDS011;28756;49.064;9.290;2024-02-26T06:37:00;3.35;;;2.75;;
43152;SDS011;28756;49.064;9.290;2024-02-26T06:39:26;2.58;;;2.30;;
43152;SDS011;28756;49.064;9.290;2024-02-26T06:41:55;2.67;;;1.92;;
43152;SDS011;28756;49.064;9.290;2024-02-26T06:44:25;2.08;;;1.75;;
43152;SDS011;28756;49.064;9.290;2024-02-26T06:46:57;2.45;;;1.70;;
43152;SDS011;28756;49.064;9.290;2024-02-26T06:49:24;2.88;;;1.40;;
43152;SDS011;28756;49.064;9.290;2024-02-26T06:51:50;2.50;;;1.40;;
43152;SDS011;28756;49.064;9.290;2024-02-26T06:54:16;1.60;;;1.20;;
43152;SDS011;28756;49.064;9.290;2024-02-26T06:56:42;1.90;;;1.30;;
43152;SDS011;28756;49.064;9.290;2024-02-26T06:59:08;2.88;;;1.45;;
43152;SDS011;28756;49.064;9.290;2024-02-26T07:01:35;2.03;;;1.58;;
43152;SDS011;28756;49.064;9.290;2024-02-26T07:04:00;1.95;;;1.50;;
43152;SDS011;28756;49.064;9.290;2024-02-26T07:06:27;2.45;;;1.60;;
43152;SDS011;28756;49.064;9.290;2024-02-26T07:08:52;2.67;;;1.65;;
43152;SDS011;28756;49.064;9.290;2024-02-26T07:11:19;2.25;;;1.20;;
43152;SDS011;28756;49.064;9.290;2024-02-26T07:13:45;2.38;;;1.30;;
43152;SDS011;28756;49.064;9.290;2024-02-26T07:16:11;1.48;;;1.08;;
43152;SDS011;28756;49.064;9.290;2024-02-26T07:18:38;2.00;;;1.10;;
43152;SDS011;28756;49.064;9.290;2024-02-26T07:21:04;1.08;;;0.98;;
43152;SDS011;28756;49.064;9.290;2024-02-26T07:23:30;2.50;;;0.90;;
43152;SDS011;28756;49.064;9.290;2024-02-26T07:25:57;1.77;;;1.00;;
43152;SDS011;28756;49.064;9.290;2024-02-26T07:28:23;1.20;;;0.98;;
43152;SDS011;28756;49.064;9.290;2024-02-26T07:30:50;1.83;;;1.10;;
43152;SDS011;28756;49.064;9.290;2024-02-26T07:33:15;1.95;;;1.50;;
43152;SDS011;28756;49.064;9.290;2024-02-26T07:35:41;1.65;;;1.42;;
43152;SDS011;28756;49.064;9.290;2024-02-26T07:38:07;4.53;;;1.50;;
43152;SDS011;28756;49.064;9.290;2024-02-26T07:40:33;2.92;;;1.80;;
43152;SDS011;28756;49.064;9.290;2024-02-26T07:43:02;3.88;;;1.83;;
43152;SDS011;28756;49.064;9.290;2024-02-26T07:45:28;2.35;;;1.45;;
43152;SDS011;28756;49.064;9.290;2024-02-26T07:47:53;3.33;;;1.58;;
43152;SDS011;28756;49.064;9.290;2024-02-26T07:50:19;2.03;;;1.50;;
43152;SDS011;28756;49.064;9.290;2024-02-26T07:52:45;2.38;;;1.60;;
43152;SDS011;28756;49.064;9.290;2024-02-26T07:55:11;1.77;;;1.52;;
43152;SDS011;28756;49.064;9.290;2024-02-26T07:57:37;2.17;;;1.50;;
43152;SDS011;28756;49.064;9.290;2024-02-26T08:00:11;1.85;;;1.45;;
43152;SDS011;28756;49.064;9.290;2024-02-26T08:02:41;1.83;;;1.27;;
43152;SDS011;28756;49.064;9.290;2024-02-26T08:05:08;2.85;;;1.80;;
43152;SDS011;28756;49.064;9.290;2024-02-26T08:07:35;2.92;;;1.70;;
43152;SDS011;28756;49.064;9.290;2024-02-26T08:10:00;2.53;;;1.80;;
43152;SDS011;28756;49.064;9.290;2024-02-26T08:12:26;1.85;;;1.50;;
43152;SDS011;28756;49.064;9.290;2024-02-26T08:14:52;2.78;;;1.77;;
43152;SDS011;28756;49.064;9.290;2024-02-26T08:17:18;3.08;;;1.30;;
43152;SDS011;28756;49.064;9.290;2024-02-26T08:19:44;3.70;;;1.55;;
43152;SDS011;28756;49.064;9.290;2024-02-26T08:22:14;1.95;;;1.50;;
43152;SDS011;28756;49.064;9.290;2024-02-26T08:25:05;1.63;;;1.40;;
43152;SDS011;28756;49.064;9.290;2024-02-26T08:27:34;2.35;;;1.60;;
43152;SDS011;28756;49.064;9.290;2024-02-26T08:29:59;2.60;;;1.70;;
43152;SDS011;28756;49.064;9.290;2024-02-26T08:32:26;2.22;;;1.67;;
43152;SDS011;28756;49.064;9.290;2024-02-26T08:34:52;2.33;;;1.73;;
43152;SDS011;28756;49.064;9.290;2024-02-26T08:37:18;2.42;;;1.73;;
43152;SDS011;28756;49.064;9.290;2024-02-26T08:39:44;2.10;;;1.60;;
43152;SDS011;28756;49.064;9.290;2024-02-26T08:42:10;1.70;;;1.30;;
43152;SDS011;28756;49.064;9.290;2024-02-26T08:44:36;2.45;;;1.30;;
43152;SDS011;28756;49.064;9.290;2024-02-26T08:47:02;1.45;;;1.10;;
43152;SDS011;28756;49.064;9.290;2024-02-26T08:49:28;1.90;;;0.90;;
43152;SDS011;28756;49.064;9.290;2024-02-26T08:51:54;1.50;;;0.90;;
43152;SDS011;28756;49.064;9.290;2024-02-26T08:54:19;1.27;;;1.10;;
43152;SDS011;28756;49.064;9.290;2024-02-26T08:56:45;1.17;;;0.98;;
43152;SDS011;28756;49.064;9.290;2024-02-26T08:59:11;1.58;;;1.20;;
43152;SDS011;28756;49.064;9.290;2024-02-26T09:01:37;2.13;;;1.23;;
43152;SDS011;28756;49.064;9.290;2024-02-26T09:04:02;2.60;;;1.60;;
43152;SDS011;28756;49.064;9.290;2024-02-26T09:06:28;1.77;;;1.15;;
43152;SDS011;28756;49.064;9.290;2024-02-26T09:08:54;2.42;;;1.35;;
43152;SDS011;28756;49.064;9.290;2024-02-26T09:11:21;2.20;;;1.40;;
43152;SDS011;28756;49.064;9.290;2024-02-26T09:13:46;1.50;;;1.40;;
43152;SDS011;28756;49.064;9.290;2024-02-26T09:16:12;1.48;;;1.38;;
43152;SDS011;28756;49.064;9.290;2024-02-26T09:18:38;1.25;;;1.13;;
43152;SDS011;28756;49.064;9.290;2024-02-26T09:21:04;1.25;;;1.02;;
43152;SDS011;28756;49.064;9.290;2024-02-26T09:23:34;1.52;;;1.25;;
43152;SDS011;28756;49.064;9.290;2024-02-26T09:26:00;1.50;;;1.23;;
43152;SDS011;28756;49.064;9.290;2024-02-26T09:28:26;2.05;;;1.35;;
43152;SDS011;28756;49.064;9.290;2024-02-26T09:30:51;2.08;;;1.30;;
43152;SDS011;28756;49.064;9.290;2024-02-26T09:33:17;3.20;;;1.13;;
43152;SDS011;28756;49.064;9.290;2024-02-26T09:35:43;1.90;;;1.23;;
43152;SDS011;28756;49.064;9.290;2024-02-26T09:38:09;1.55;;;1.23;;
43152;SDS011;28756;49.064;9.290;2024-02-26T09:40:35;1.38;;;1.10;;
43152;SDS011;28756;49.064;9.290;2024-02-26T09:43:02;2.95;;;1.20;;
43152;SDS011;28756;49.064;9.290;2024-02-26T09:45:31;1.17;;;0.80;;
43152;SDS011;28756;49.064;9.290;2024-02-26T09:47:58;0.95;;;0.80;;
43152;SDS011;28756;49.064;9.290;2024-02-26T09:50:25;1.55;;;1.08;;
43152;SDS011;28756;49.064;9.290;2024-02-26T09:52:51;3.35;;;0.85;;
43152;SDS011;28756;49.064;9.290;2024-02-26T09:55:19;1.60;;;0.95;;
43152;SDS011;28756;49.064;9.290;2024-02-26T09:57:45;2.75;;;0.80;;
43152;SDS011;28756;49.064;9.290;2024-02-26T10:00:20;1.95;;;0.95;;
43152;SDS011;28756;49.064;9.290;2024-02-26T10:02:47;1.38;;;0.70;;
43152;SDS011;28756;49.064;9.290;2024-02-26T10:05:14;1.55;;;0.80;;
43152;SDS011;28756;49.064;9.290;2024-02-26T10:07:44;1.08;;;0.80;;
43152;SDS011;28756;49.064;9.290;2024-02-26T10:10:11;1.10;;;0.85;;
43152;SDS011;28756;49.064;9.290;2024-02-26T10:12:38;2.35;;;0.80;;
43152;SDS011;28756;49.064;9.290;2024-02-26T10:15:04;2.03;;;0.93;;
43152;SDS011;28756;49.064;9.290;2024-02-26T10:17:30;1.10;;;0.80;;
43152;SDS011;28756;49.064;9.290;2024-02-26T10:20:13;1.00;;;0.80;;
43152;SDS011;28756;49.064;9.290;2024-02-26T10:22:46;1.33;;;0.80;;
43152;SDS011;28756;49.064;9.290;2024-02-26T10:25:12;1.38;;;0.88;;
43152;SDS011;28756;49.064;9.290;2024-02-26T10:27:42;1.95;;;0.80;;
43152;SDS011;28756;49.064;9.290;2024-02-26T10:30:20;1.00;;;0.90;;
43152;SDS011;28756;49.064;9.290;2024-02-26T10:32:48;0.90;;;0.60;;
43152;SDS011;28756;49.064;9.290;2024-02-26T10:35:15;0.85;;;0.63;;
43152;SDS011;28756;49.064;9.290;2024-02-26T10:37:42;1.67;;;0.80;;
43152;SDS011;28756;49.064;9.290;2024-02-26T10:40:12;1.25;;;0.70;;
43152;SDS011;28756;49.064;9.290;2024-02-26T10:42:40;0.73;;;0.60;;
43152;SDS011;28756;49.064;9.290;2024-02-26T10:45:07;0.80;;;0.60;;
43152;SDS011;28756;49.064;9.290;2024-02-26T10:47:35;0.85;;;0.70;;
43152;SDS011;28756;49.064;9.290;2024-02-26T10:50:02;0.93;;;0.40;;
43152;SDS011;28756;49.064;9.290;2024-02-26T10:52:34;0.50;;;0.35;;
43152;SDS011;28756;49.064;9.290;2024-02-26T10:55:02;1.30;;;0.60;;
43152;SDS011;28756;49.064;9.290;2024-02-26T10:57:35;1.52;;;0.60;;
43152;SDS011;28756;49.064;9.290;2024-02-26T11:00:04;0.90;;;0.65;;
43152;SDS011;28756;49.064;9.290;2024-02-26T11:02:34;0.50;;;0.50;;
43152;SDS011;28756;49.064;9.290;2024-02-26T11:05:02;0.68;;;0.60;;
43152;SDS011;28756;49.064;9.290;2024-02-26T11:07:29;0.93;;;0.57;;
43152;SDS011;28756;49.064;9.290;2024-02-26T11:09:57;0.82;;;0.50;;
43152;SDS011;28756;49.064;9.290;2024-02-26T11:12:25;1.33;;;0.65;;
43152;SDS011;28756;49.064;9.290;2024-02-26T11:14:54;0.60;;;0.50;;
43152;SDS011;28756;49.064;9.290;2024-02-26T11:17:23;0.65;;;0.50;;
43152;SDS011;28756;49.064;9.290;2024-02-26T11:19:56;1.63;;;0.60;;
43152;SDS011;28756;49.064;9.290;2024-02-26T11:22:24;0.40;;;0.40;;
43152;SDS011;28756;49.064;9.290;2024-02-26T11:24:54;0.73;;;0.40;;
43152;SDS011;28756;49.064;9.290;2024-02-26T11:27:35;1.65;;;0.50;;
43152;SDS011;28756;49.064;9.290;2024-02-26T11:30:10;0.63;;;0.40;;
43152;SDS011;28756;49.064;9.290;2024-02-26T11:32:38;0.40;;;0.40;;
43152;SDS011;28756;49.064;9.290;2024-02-26T11:35:04;0.40;;;0.40;;
43152;SDS011;28756;49.064;9.290;2024-02-26T11:37:30;0.52;;;0.35;;
43152;SDS011;28756;49.064;9.290;2024-02-26T11:39:58;0.50;;;0.40;;
43152;SDS011;28756;49.064;9.290;2024-02-26T11:42:26;0.75;;;0.40;;
43152;SDS011;28756;49.064;9.290;2024-02-26T11:44:53;0.50;;;0.40;;
43152;SDS011;28756;49.064;9.290;2024-02-26T11:47:21;0.70;;;0.50;;
43152;SDS011;28756;49.064;9.290;2024-02-26T11:49:48;2.35;;;0.47;;
43152;SDS011;28756;49.064;9.290;2024-02-26T11:52:14;0.50;;;0.40;;
43152;SDS011;28756;49.064;9.290;2024-02-26T12:05:24;2.17;;;0.80;;
43152;SDS011;28756;49.064;9.290;2024-02-26T12:07:53;0.60;;;0.50;;
43152;SDS011;28756;49.064;9.290;2024-02-26T12:13:12;0.63;;;0.50;;
43152;SDS011;28756;49.064;9.290;2024-02-26T12:15:43;0.77;;;0.40;;
43152;SDS011;28756;49.064;9.290;2024-02-26T12:18:23;0.60;;;0.50;;
43152;SDS011;28756;49.064;9.290;2024-02-26T12:21:07;0.40;;;0.38;;
43152;SDS011;28756;49.064;9.290;2024-02-26T12:23:37;0.50;;;0.40;;
43152;SDS011;28756;49.064;9.290;2024-02-26T12:26:03;0.40;;;0.30;;
43152;SDS011;28756;49.064;9.290;2024-02-26T12:28:30;0.43;;;0.38;;
43152;SDS011;28756;49.064;9.290;2024-02-26T12:30:56;0.38;;;0.38;;
43152;SDS011;28756;49.064;9.290;2024-02-26T12:33:24;0.47;;;0.40;;
43152;SDS011;28756;49.064;9.290;2024-02-26T12:35:51;0.35;;;0.35;;
43152;SDS011;28756;49.064;9.290;2024-02-26T12:38:18;0.30;;;0.30;;
43152;SDS011;28756;49.064;9.290;2024-02-26T12:40:44;0.50;;;0.40;;
43152;SDS011;28756;49.064;9.290;2024-02-26T12:43:10;0.82;;;0.55;;
43152;SDS011;28756;49.064;9.290;2024-02-26T12:45:41;0.57;;;0.40;;
43152;SDS011;28756;49.064;9.290;2024-02-26T12:48:06;0.50;;;0.35;;
43152;SDS011;28756;49.064;9.290;2024-02-26T12:50:33;0.40;;;0.40;;
43152;SDS011;28756;49.064;9.290;2024-02-26T12:52:59;0.20;;;0.20;;
43152;SDS011;28756;49.064;9.290;2024-02-26T12:55:25;0.63;;;0.30;;
43152;SDS011;28756;49.064;9.290;2024-02-26T12:57:52;0.35;;;0.30;;
43152;SDS011;28756;49.064;9.290;2024-02-26T13:00:20;0.32;;;0.30;;
43152;SDS011;28756;49.064;9.290;2024-02-26T13:02:50;0.38;;;0.30;;
43152;SDS011;28756;49.064;9.290;2024-02-26T13:05:18;0.28;;;0.20;;
43152;SDS011;28756;49.064;9.290;2024-02-26T13:07:45;0.35;;;0.25;;
43152;SDS011;28756;49.064;9.290;2024-02-26T13:10:16;0.28;;;0.20;;
43152;SDS011;28756;49.064;9.290;2024-02-26T13:12:49;0.43;;;0.30;;
43152;SDS011;28756;49.064;9.290;2024-02-26T13:15:16;0.32;;;0.20;;
43152;SDS011;28756;49.064;9.290;2024-02-26T13:17:44;0.20;;;0.20;;
43152;SDS011;28756;49.064;9.290;2024-02-26T13:20:11;0.22;;;0.20;;
43152;SDS011;28756;49.064;9.290;2024-02-26T13:22:38;0.10;;;0.10;;
43152;SDS011;28756;49.064;9.290;2024-02-26T13:25:04;0.65;;;0.20;;
43152;SDS011;28756;49.064;9.290;2024-02-26T13:27:34;0.30;;;0.20;;
43152;SDS011;28756;49.064;9.290;2024-02-26T13:32:37;0.20;;;0.20;;
43152;SDS011;28756;49.064;9.290;2024-02-26T13:35:06;0.20;;;0.20;;
43152;SDS011;28756;49.064;9.290;2024-02-26T13:37:37;0.35;;;0.30;;
43152;SDS011;28756;49.064;9.290;2024-02-26T13:40:05;0.30;;;0.30;;
43152;SDS011;28756;49.064;9.290;2024-02-26T13:42:36;0.25;;;0.25;;
43152;SDS011;28756;49.064;9.290;2024-02-26T13:45:03;0.40;;;0.30;;
43152;SDS011;28756;49.064;9.290;2024-02-26T13:47:34;0.45;;;0.20;;
43152;SDS011;28756;49.064;9.290;2024-02-26T13:50:00;0.40;;;0.20;;
43152;SDS011;28756;49.064;9.290;2024-02-26T13:52:26;0.68;;;0.20;;
43152;SDS011;28756;49.064;9.290;2024-02-26T13:54:52;0.70;;;0.35;;
43152;SDS011;28756;49.064;9.290;2024-02-26T13:57:21;1.50;;;0.40;;
43152;SDS011;28756;49.064;9.290;2024-02-26T13:59:47;0.73;;;0.40;;
43152;SDS011;28756;49.064;9.290;2024-02-26T14:02:14;1.15;;;0.70;;
43152;SDS011;28756;49.064;9.290;2024-02-26T14:04:40;1.00;;;0.77;;
43152;SDS011;28756;49.064;9.290;2024-02-26T14:07:05;0.85;;;0.73;;
43152;SDS011;28756;49.064;9.290;2024-02-26T14:09:32;1.60;;;0.90;;
43152;SDS011;28756;49.064;9.290;2024-02-26T14:11:59;1.83;;;0.90;;
43152;SDS011;28756;49.064;9.290;2024-02-26T14:14:27;0.90;;;0.70;;
43152;SDS011;28756;49.064;9.290;2024-02-26T14:16:53;1.05;;;0.65;;
43152;SDS011;28756;49.064;9.290;2024-02-26T14:19:19;0.70;;;0.70;;
43152;SDS011;28756;49.064;9.290;2024-02-26T14:21:45;0.60;;;0.57;;
43152;SDS011;28756;49.064;9.290;2024-02-26T14:24:11;0.70;;;0.65;;
43152;SDS011;28756;49.064;9.290;2024-02-26T14:26:36;0.90;;;0.80;;
43152;SDS011;28756;49.064;9.290;2024-02-26T14:29:02;0.98;;;0.73;;
43152;SDS011;28756;49.064;9.290;2024-02-26T14:31:28;0.82;;;0.50;;
43152;SDS011;28756;49.064;9.290;2024-02-26T14:33:54;0.80;;;0.63;;
43152;SDS011;28756;49.064;9.290;2024-02-26T14:36:20;0.70;;;0.60;;
43152;SDS011;28756;49.064;9.290;2024-02-26T14:38:47;0.77;;;0.60;;
43152;SDS011;28756;49.064;9.290;2024-02-26T14:41:13;0.70;;;0.60;;
43152;SDS011;28756;49.064;9.290;2024-02-26T14:43:39;0.77;;;0.60;;
43152;SDS011;28756;49.064;9.290;2024-02-26T14:46:05;1.15;;;0.50;;
43152;SDS011;28756;49.064;9.290;2024-02-26T14:48:31;0.52;;;0.50;;
43152;SDS011;28756;49.064;9.290;2024-02-26T14:50:57;0.35;;;0.35;;
43152;SDS011;28756;49.064;9.290;2024-02-26T14:53:24;0.70;;;0.40;;
43152;SDS011;28756;49.064;9.290;2024-02-26T14:55:49;0.70;;;0.40;;
43152;SDS011;28756;49.064;9.290;2024-02-26T14:58:15;0.45;;;0.40;;
43152;SDS011;28756;49.064;9.290;2024-02-26T15:00:41;1.52;;;0.47;;
43152;SDS011;28756;49.064;9.290;2024-02-26T15:03:07;0.60;;;0.50;;